createdAt,value
2019-04-06T00:00:23.302Z,44.13
2019-04-06T00:02:51.801Z,58.77
2019-04-06T00:05:20.156Z,47.27
2019-04-06T00:07:48.574Z,42.87
2019-04-06T00:10:16.970Z,37.50
2019-04-06T00:12:45.363Z,44.93
2019-04-06T00:15:13.978Z,40.57
2019-04-06T00:17:42.370Z,40.93
2019-04-06T00:20:10.790Z,47.73
2019-04-06T00:22:39.185Z,42.37
2019-04-06T00:25:07.693Z,43.13
2019-04-06T00:27:36.151Z,41.57
2019-04-06T00:30:06.647Z,34.87
2019-04-06T00:32:36.740Z,35.13
2019-04-06T00:35:06.031Z,35.80
2019-04-06T00:37:34.415Z,36.50
2019-04-06T00:40:02.771Z,41.70
2019-04-06T00:42:31.227Z,41.33
2019-04-06T00:44:59.588Z,38.47
2019-04-06T00:47:27.957Z,40.97
2019-04-06T00:49:56.310Z,37.27
2019-04-06T00:52:24.690Z,38.10
2019-04-06T00:54:53.108Z,36.13
2019-04-06T00:57:21.576Z,40.67
2019-04-06T00:59:50.447Z,33.90
2019-04-06T01:02:19.026Z,41.57
2019-04-06T01:04:47.377Z,32.47
2019-04-06T01:07:15.752Z,37.97
2019-04-06T01:09:44.102Z,35.80
2019-04-06T01:12:12.483Z,33.73
2019-04-06T01:14:40.832Z,36.40
2019-04-06T01:17:09.183Z,31.67
2019-04-06T01:19:37.558Z,33.20
2019-04-06T01:22:05.973Z,32.40
2019-04-06T01:24:34.436Z,35.97
2019-04-06T01:27:02.852Z,36.50
2019-04-06T01:29:31.231Z,35.33
2019-04-06T01:31:59.580Z,22.33
2019-04-06T01:34:27.960Z,24.47
2019-04-06T01:36:56.301Z,30.63
2019-04-06T01:39:24.681Z,30.27
2019-04-06T01:41:53.105Z,24.20
2019-04-06T01:44:21.482Z,33.70
2019-04-06T01:46:49.828Z,28.07
2019-04-06T01:49:18.549Z,31.20
2019-04-06T01:51:46.900Z,25.87
2019-04-06T01:54:15.305Z,30.53
2019-04-06T01:56:43.640Z,41.17
2019-04-06T01:59:12.001Z,25.53
2019-04-06T02:01:41.992Z,26.40
2019-04-06T02:04:10.378Z,22.27
2019-04-06T02:06:38.857Z,26.83
2019-04-06T02:09:07.251Z,29.17
2019-04-06T02:11:35.596Z,40.17
2019-04-06T02:14:04.062Z,34.70
2019-04-06T02:16:32.463Z,31.33
2019-04-06T02:19:00.847Z,31.67
2019-04-06T02:21:29.196Z,28.10
2019-04-06T02:23:57.580Z,33.97
2019-04-06T02:26:30.696Z,31.77
2019-04-06T02:28:56.213Z,30.47
2019-04-06T02:31:42.320Z,33.43
2019-04-06T02:34:30.973Z,31.27
2019-04-06T02:37:09.866Z,26.23
2019-04-06T02:39:56.521Z,29.43
2019-04-06T02:42:32.242Z,29.40
2019-04-06T02:45:00.695Z,28.97
2019-04-06T02:47:29.051Z,33.57
2019-04-06T02:49:57.427Z,30.57
2019-04-06T02:52:25.773Z,32.77
2019-04-06T02:54:54.288Z,20.57
2019-04-06T02:57:22.639Z,21.60
2019-04-06T02:59:51.006Z,22.63
2019-04-06T03:02:19.527Z,28.07
2019-04-06T03:04:47.961Z,27.80
2019-04-06T03:07:16.390Z,29.57
2019-04-06T03:09:44.824Z,27.17
2019-04-06T03:12:13.234Z,27.77
2019-04-06T03:14:44.188Z,27.20
2019-04-06T03:17:11.682Z,29.30
2019-04-06T03:19:40.034Z,29.40
2019-04-06T03:22:08.482Z,36.53
2019-04-06T03:24:36.990Z,32.10
2019-04-06T03:27:05.464Z,30.30
2019-04-06T03:29:33.806Z,27.07
2019-04-06T03:32:02.399Z,31.77
2019-04-06T03:34:30.676Z,28.97
2019-04-06T03:37:00.709Z,29.33
2019-04-06T03:39:29.062Z,30.77
2019-04-06T03:41:57.590Z,29.33
2019-04-06T03:44:25.980Z,26.87
2019-04-06T03:46:54.547Z,25.63
2019-04-06T03:49:22.910Z,28.53
2019-04-06T03:51:51.354Z,26.90
2019-04-06T03:54:19.736Z,29.00
2019-04-06T03:56:48.541Z,29.93
2019-04-06T03:59:16.889Z,65.10
2019-04-06T04:01:45.289Z,94.13
2019-04-06T04:04:13.642Z,79.90
2019-04-06T04:06:42.016Z,29.50
2019-04-06T04:09:10.365Z,38.23
2019-04-06T04:11:38.741Z,37.13
2019-04-06T04:14:07.093Z,35.87
2019-04-06T04:16:35.476Z,37.30
2019-04-06T04:19:03.898Z,35.13
2019-04-06T04:21:32.276Z,54.53
2019-04-06T04:24:00.627Z,27.63
2019-04-06T04:26:29.028Z,28.47
2019-04-06T04:28:57.364Z,28.47
2019-04-06T04:31:25.719Z,32.27
2019-04-06T04:33:54.089Z,38.67
2019-04-06T04:36:22.439Z,28.07
2019-04-06T04:38:50.887Z,32.27
2019-04-06T04:41:19.305Z,31.37
2019-04-06T04:43:47.685Z,30.90
2019-04-06T04:46:16.104Z,28.07
2019-04-06T04:48:44.481Z,27.70
2019-04-06T04:51:12.829Z,27.97
2019-04-06T04:53:41.776Z,25.37
2019-04-06T04:56:10.128Z,30.97
2019-04-06T04:58:38.510Z,25.90
2019-04-06T05:01:06.922Z,28.33
2019-04-06T05:03:35.412Z,35.20
2019-04-06T05:06:04.206Z,31.87
2019-04-06T05:08:32.780Z,32.30
2019-04-06T05:11:01.115Z,77.53
2019-04-06T05:13:29.499Z,75.47
2019-04-06T05:16:12.057Z,133.83
2019-04-06T05:18:42.752Z,101.97
2019-04-06T05:21:11.746Z,52.50
2019-04-06T05:23:40.121Z,80.23
2019-04-06T05:26:08.656Z,121.93
2019-04-06T05:28:37.165Z,67.00
2019-04-06T05:31:05.701Z,63.77
2019-04-06T05:33:34.515Z,45.03
2019-04-06T05:36:02.932Z,46.50
2019-04-06T05:38:31.306Z,41.80
2019-04-06T05:40:59.721Z,49.13
2019-04-06T05:43:28.100Z,44.57
2019-04-06T05:45:56.455Z,48.90
2019-04-06T05:48:24.835Z,46.00
2019-04-06T05:50:53.253Z,41.90
2019-04-06T05:53:21.634Z,54.30
2019-04-06T05:55:49.987Z,79.80
2019-04-06T05:58:18.385Z,52.47
2019-04-06T06:00:46.725Z,44.37
2019-04-06T06:03:15.967Z,47.77
2019-04-06T06:05:44.337Z,47.23
2019-04-06T06:08:12.684Z,34.40
2019-04-06T06:10:41.062Z,32.70
2019-04-06T06:13:09.402Z,35.67
2019-04-06T06:15:37.787Z,30.80
2019-04-06T06:18:06.206Z,34.20
2019-04-06T06:20:34.662Z,29.23
2019-04-06T06:23:03.006Z,33.90
2019-04-06T06:25:31.781Z,36.60
2019-04-06T06:28:00.397Z,38.37
2019-04-06T06:30:28.874Z,34.03
2019-04-06T06:32:57.227Z,34.80
2019-04-06T06:35:25.670Z,39.97
2019-04-06T06:37:54.027Z,39.67
2019-04-06T06:40:22.413Z,33.00
2019-04-06T06:42:50.770Z,34.47
2019-04-06T06:45:19.323Z,31.93
2019-04-06T06:47:47.643Z,36.53
2019-04-06T06:50:16.094Z,36.23
2019-04-06T06:52:44.548Z,39.30
2019-04-06T06:55:13.238Z,38.07
2019-04-06T06:57:41.612Z,36.47
2019-04-06T07:00:10.176Z,40.60
2019-04-06T07:02:38.552Z,34.50
2019-04-06T07:05:07.007Z,38.93
2019-04-06T07:07:35.406Z,40.17
2019-04-06T07:10:06.474Z,38.70
2019-04-06T07:12:34.986Z,40.10
2019-04-06T07:15:04.102Z,41.83
2019-04-06T07:17:32.520Z,47.93
2019-04-06T07:20:00.908Z,44.70
2019-04-06T07:22:29.257Z,52.80
2019-04-06T07:24:57.646Z,46.40
2019-04-06T07:27:25.994Z,53.20
2019-04-06T07:29:54.381Z,49.90
2019-04-06T07:32:22.728Z,53.57
2019-04-06T07:34:51.123Z,56.87
2019-04-06T07:37:19.474Z,51.33
2019-04-06T07:39:47.864Z,53.57
2019-04-06T07:42:16.514Z,55.23
2019-04-06T07:44:44.862Z,53.40
2019-04-06T07:47:13.321Z,48.33
2019-04-06T07:49:41.674Z,57.47
2019-04-06T07:52:10.297Z,64.77
2019-04-06T07:54:38.693Z,57.47
2019-04-06T07:57:07.146Z,51.50
2019-04-06T07:59:35.762Z,48.33
2019-04-06T08:02:04.340Z,49.37
2019-04-06T08:04:32.745Z,47.90
2019-04-06T08:07:01.188Z,48.60
2019-04-06T08:09:29.546Z,50.90
2019-04-06T08:11:57.997Z,42.13
2019-04-06T08:14:26.370Z,46.37
2019-04-06T08:16:54.757Z,44.63
2019-04-06T08:19:23.179Z,36.30
2019-04-06T08:21:51.558Z,31.27
2019-04-06T08:24:19.903Z,29.07
2019-04-06T08:26:48.286Z,30.63
2019-04-06T08:29:16.847Z,28.13
2019-04-06T08:31:45.193Z,26.97
2019-04-06T08:34:14.085Z,28.80
2019-04-06T08:36:42.676Z,38.60
2019-04-06T08:39:11.094Z,24.77
2019-04-06T08:41:39.535Z,25.53
2019-04-06T08:44:07.956Z,24.63
2019-04-06T08:46:36.405Z,24.27
2019-04-06T08:49:05.019Z,26.43
2019-04-06T08:51:33.454Z,26.50
2019-04-06T08:54:02.059Z,37.80
2019-04-06T08:56:30.546Z,28.13
2019-04-06T08:59:10.188Z,28.23
2019-04-06T09:01:29.002Z,28.57
2019-04-06T09:03:57.355Z,25.03
2019-04-06T09:06:25.737Z,24.10
2019-04-06T09:08:54.347Z,27.47
2019-04-06T09:11:22.943Z,24.90
2019-04-06T09:13:51.282Z,27.87
2019-04-06T09:16:19.910Z,28.23
2019-04-06T09:18:49.326Z,29.83
2019-04-06T09:21:18.002Z,27.20
2019-04-06T09:23:46.393Z,27.40
2019-04-06T09:26:14.745Z,25.43
2019-04-06T09:28:43.395Z,24.93
2019-04-06T09:31:11.729Z,20.73
2019-04-06T09:33:40.110Z,22.20
2019-04-06T09:36:08.466Z,22.20
2019-04-06T09:38:36.850Z,16.73
2019-04-06T09:41:05.379Z,18.17
2019-04-06T09:43:33.744Z,19.57
2019-04-06T09:46:12.264Z,18.33
2019-04-06T09:48:54.333Z,20.23
2019-04-06T09:51:30.181Z,19.70
2019-04-06T09:54:06.237Z,15.70
2019-04-06T09:56:34.732Z,17.20
2019-04-06T09:59:21.011Z,15.40
2019-04-06T10:02:06.028Z,16.73
2019-04-06T10:04:48.061Z,14.77
2019-04-06T10:07:34.463Z,14.83
2019-04-06T10:10:04.438Z,16.07
2019-04-06T10:12:49.863Z,15.50
2019-04-06T10:15:19.890Z,17.13
2019-04-06T10:18:08.263Z,15.87
2019-04-06T10:20:41.268Z,13.73
2019-04-06T10:23:11.350Z,18.60
2019-04-06T10:25:44.328Z,26.00
2019-04-06T10:28:32.681Z,14.47
2019-04-06T10:31:05.162Z,88.83
2019-04-06T10:33:37.883Z,14.07
2019-04-06T10:36:17.188Z,14.00
2019-04-06T10:39:03.805Z,14.23
2019-04-06T10:41:48.862Z,14.77
2019-04-06T10:44:18.886Z,14.00
2019-04-06T10:47:01.100Z,13.47
2019-04-06T10:49:36.886Z,17.20
2019-04-06T10:52:09.692Z,16.33
2019-04-06T10:54:45.870Z,14.60
2019-04-06T10:57:32.311Z,13.47
2019-04-06T11:00:14.277Z,13.07
2019-04-06T11:02:44.218Z,12.07
2019-04-06T11:05:14.390Z,12.17
2019-04-06T11:07:47.045Z,13.03
2019-04-06T11:10:35.329Z,14.03
2019-04-06T11:13:14.223Z,13.50
2019-04-06T11:15:46.913Z,12.80
2019-04-06T11:18:32.944Z,12.83
2019-04-06T11:21:08.831Z,15.47
2019-04-06T11:23:44.363Z,14.43
2019-04-06T11:26:17.667Z,14.80
2019-04-06T11:28:57.042Z,15.60
2019-04-06T11:31:43.681Z,13.67
2019-04-06T11:34:13.678Z,13.07
2019-04-06T11:36:55.762Z,12.40
2019-04-06T11:39:25.745Z,10.97
2019-04-06T11:41:55.779Z,12.10
2019-04-06T11:44:38.288Z,11.73
2019-04-06T11:47:17.163Z,10.43
2019-04-06T11:49:55.754Z,10.97
2019-04-06T11:52:43.836Z,13.47
2019-04-06T11:55:13.861Z,10.30
2019-04-06T11:57:46.978Z,10.97
2019-04-06T12:00:26.455Z,10.97
2019-04-06T12:03:09.223Z,10.57
2019-04-06T12:05:54.565Z,11.23
2019-04-06T12:08:33.691Z,11.10
2019-04-06T12:11:18.423Z,10.27
2019-04-06T12:13:48.536Z,12.57
2019-04-06T12:16:27.835Z,11.77
2019-04-06T12:18:57.829Z,11.30
2019-04-06T12:21:30.577Z,10.57
2019-04-06T12:24:16.898Z,10.93
2019-04-06T12:26:46.925Z,10.60
2019-04-06T12:29:32.146Z,10.93
2019-04-06T12:32:18.304Z,11.37
2019-04-06T12:34:50.936Z,11.50
2019-04-06T12:37:20.975Z,11.27
2019-04-06T12:39:53.836Z,11.00
2019-04-06T12:42:28.523Z,10.70
2019-04-06T12:45:14.732Z,11.27
2019-04-06T12:47:56.691Z,11.43
2019-04-06T12:50:41.819Z,10.60
2019-04-06T12:53:14.944Z,9.50
2019-04-06T12:55:45.052Z,10.40
2019-04-06T12:58:20.747Z,11.80
2019-04-06T13:00:54.365Z,14.10
2019-04-06T13:03:30.059Z,11.23
2019-04-06T13:06:02.797Z,10.90
2019-04-06T13:08:41.519Z,9.73
2019-04-06T13:11:14.023Z,9.50
2019-04-06T13:13:44.334Z,9.50
2019-04-06T13:16:14.422Z,8.43
2019-04-06T13:18:47.271Z,11.80
2019-04-06T13:21:20.383Z,10.40
2019-04-06T13:23:50.672Z,11.07
2019-04-06T13:26:20.867Z,9.33
2019-04-06T13:28:50.856Z,8.67
2019-04-06T13:31:23.565Z,8.60
2019-04-06T13:33:56.718Z,9.93
2019-04-06T13:36:42.946Z,9.00
2019-04-06T13:39:18.865Z,8.83
2019-04-06T13:41:48.884Z,9.23
2019-04-06T13:44:33.791Z,8.13
2019-04-06T13:47:33.565Z,10.37
2019-04-06T13:50:06.670Z,10.63
2019-04-06T13:52:42.476Z,10.20
2019-04-06T13:55:21.403Z,9.73
2019-04-06T13:57:51.503Z,9.47
2019-04-06T14:00:33.349Z,10.10
2019-04-06T14:03:09.207Z,10.50
2019-04-06T14:05:44.930Z,10.37
2019-04-06T14:08:15.269Z,10.90
2019-04-06T14:10:51.586Z,11.07
2019-04-06T14:13:30.380Z,11.20
2019-04-06T14:16:06.188Z,11.27
2019-04-06T14:18:47.963Z,11.90
2019-04-06T14:21:33.168Z,10.87
2019-04-06T14:24:03.288Z,11.57
2019-04-06T14:26:39.006Z,11.90
2019-04-06T14:29:14.976Z,10.90
2019-04-06T14:32:01.166Z,11.30
2019-04-06T14:34:46.162Z,10.03
2019-04-06T14:37:21.675Z,9.70
2019-04-06T14:39:54.368Z,10.33
2019-04-06T14:42:27.486Z,10.17
2019-04-06T14:45:12.576Z,9.90
2019-04-06T14:47:42.636Z,9.97
2019-04-06T14:50:28.815Z,9.60
2019-04-06T14:53:10.744Z,8.63
2019-04-06T14:55:41.223Z,9.07
2019-04-06T14:58:11.468Z,8.70
2019-04-06T15:00:57.743Z,8.43
2019-04-06T15:03:43.884Z,9.17
2019-04-06T15:06:26.125Z,9.63
2019-04-06T15:08:56.121Z,11.27
2019-04-06T15:11:26.149Z,10.90
2019-04-06T15:14:08.112Z,10.63
2019-04-06T15:16:38.202Z,9.53
2019-04-06T15:19:08.217Z,10.23
2019-04-06T15:21:38.214Z,11.40
2019-04-06T15:24:10.978Z,10.97
2019-04-06T15:26:46.766Z,11.77
2019-04-06T15:29:16.796Z,11.97
2019-04-06T15:31:51.645Z,11.37
2019-04-06T15:34:23.035Z,11.23
2019-04-06T15:36:58.555Z,11.67
2019-04-06T15:39:34.110Z,12.57
2019-04-06T15:42:04.094Z,12.03
2019-04-06T15:44:50.390Z,11.40
2019-04-06T15:47:20.477Z,14.63
2019-04-06T15:49:50.506Z,17.63
2019-04-06T15:52:20.854Z,18.20
2019-04-06T15:54:50.906Z,21.03
2019-04-06T15:57:37.377Z,17.73
2019-04-06T16:00:21.859Z,20.97
2019-04-06T16:02:57.811Z,20.20
2019-04-06T16:05:33.590Z,21.00
2019-04-06T16:08:21.924Z,20.00
2019-04-06T16:11:07.241Z,22.27
2019-04-06T16:13:37.233Z,22.53
2019-04-06T16:16:13.342Z,22.53
2019-04-06T16:18:46.224Z,21.63
2019-04-06T16:21:19.569Z,23.33
2019-04-06T16:24:01.528Z,27.30
2019-04-06T16:26:26.851Z,21.97
2019-04-06T16:28:59.806Z,22.37
2019-04-06T16:31:42.010Z,21.77
2019-04-06T16:34:12.006Z,22.20
2019-04-06T16:36:42.051Z,21.40
2019-04-06T16:39:18.402Z,21.57
2019-04-06T16:41:57.552Z,21.60
2019-04-06T16:44:27.938Z,20.33
2019-04-06T16:47:13.027Z,20.20
2019-04-06T16:49:52.351Z,21.23
2019-04-06T16:52:23.105Z,22.87
2019-04-06T16:55:09.361Z,20.10
2019-04-06T16:57:55.235Z,17.13
2019-04-06T17:00:28.150Z,17.67
2019-04-06T17:03:10.275Z,17.07
2019-04-06T17:05:55.482Z,17.10
2019-04-06T17:08:40.258Z,18.70
2019-04-06T17:11:26.749Z,19.83
2019-04-06T17:14:14.889Z,17.93
2019-04-06T17:16:48.149Z,19.80
2019-04-06T17:19:21.447Z,18.30
2019-04-06T17:22:06.425Z,18.57
2019-04-06T17:24:36.752Z,18.23
2019-04-06T17:27:12.795Z,18.40
2019-04-06T17:30:01.056Z,19.00
2019-04-06T17:32:47.169Z,18.43
2019-04-06T17:35:29.123Z,18.17
2019-04-06T17:38:08.324Z,18.93
2019-04-06T17:40:43.976Z,17.80
2019-04-06T17:43:30.233Z,19.07
2019-04-06T17:46:16.618Z,18.80
2019-04-06T17:48:47.439Z,17.40
2019-04-06T17:51:20.930Z,20.67
2019-04-06T17:53:53.697Z,22.30
2019-04-06T17:56:26.216Z,22.03
2019-04-06T17:59:02.221Z,21.13
2019-04-06T18:01:38.238Z,21.50
2019-04-06T18:04:10.831Z,22.40
2019-04-06T18:06:47.089Z,24.37
2019-04-06T18:09:18.063Z,22.50
2019-04-06T18:11:54.227Z,21.13
2019-04-06T18:14:23.565Z,22.30
2019-04-06T18:16:51.953Z,20.43
2019-04-06T18:19:20.516Z,23.70
2019-04-06T18:21:49.162Z,23.47
2019-04-06T18:24:17.935Z,25.47
2019-04-06T18:26:46.461Z,26.13
2019-04-06T18:29:15.149Z,31.50
2019-04-06T18:31:53.888Z,27.73
2019-04-06T18:34:22.846Z,28.23
2019-04-06T18:36:59.258Z,26.73
2019-04-06T18:39:28.116Z,27.07
2019-04-06T18:41:56.634Z,29.07
2019-04-06T18:44:25.649Z,27.77
2019-04-06T18:46:54.228Z,27.60
2019-04-06T18:49:22.824Z,27.63
2019-04-06T18:51:51.714Z,27.30
2019-04-06T18:54:21.168Z,27.27
2019-04-06T18:56:54.302Z,31.60
2019-04-06T18:59:23.240Z,31.40
2019-04-06T19:01:51.821Z,28.47
2019-04-06T19:04:20.356Z,27.93
2019-04-06T19:06:48.820Z,30.77
2019-04-06T19:09:23.448Z,29.53
2019-04-06T19:11:54.242Z,31.10
2019-04-06T19:14:18.026Z,30.27
2019-04-06T19:16:46.706Z,31.40
2019-04-06T19:19:15.088Z,30.47
2019-04-06T19:21:43.529Z,29.20
2019-04-06T19:24:12.224Z,31.13
2019-04-06T19:26:41.095Z,31.83
2019-04-06T19:29:09.569Z,36.60
2019-04-06T19:31:38.055Z,33.30
2019-04-06T19:34:07.006Z,32.83
2019-04-06T19:36:35.363Z,31.50
2019-04-06T19:39:05.656Z,29.10
2019-04-06T19:41:34.875Z,34.93
2019-04-06T19:44:03.850Z,34.33
2019-04-06T19:46:32.236Z,32.77
2019-04-06T19:49:01.168Z,39.80
2019-04-06T19:51:30.213Z,35.37
2019-04-06T19:53:58.567Z,32.60
2019-04-06T19:56:30.008Z,32.93
2019-04-06T19:59:00.094Z,29.17
2019-04-06T20:01:28.547Z,30.63
2019-04-06T20:03:56.904Z,32.23
2019-04-06T20:06:25.457Z,27.90
2019-04-06T20:08:53.941Z,26.80
2019-04-06T20:11:22.358Z,31.17
2019-04-06T20:13:50.776Z,28.77
2019-04-06T20:16:20.086Z,32.83
2019-04-06T20:18:48.915Z,33.23
2019-04-06T20:21:17.485Z,29.53
2019-04-06T20:23:46.191Z,31.60
2019-04-06T20:26:16.216Z,30.50
2019-04-06T20:28:44.611Z,32.40
2019-04-06T20:31:21.997Z,31.33
2019-04-06T20:33:51.599Z,36.60
2019-04-06T20:36:16.970Z,35.50
2019-04-06T20:38:46.012Z,36.10
2019-04-06T20:41:16.415Z,34.33
2019-04-06T20:43:46.051Z,36.63
2019-04-06T20:46:15.198Z,38.37
2019-04-06T20:48:43.711Z,36.67
2019-04-06T20:51:12.444Z,39.90
2019-04-06T20:53:40.888Z,39.90
2019-04-06T20:56:09.704Z,42.87
2019-04-06T20:58:40.177Z,46.43
2019-04-06T21:01:08.991Z,48.17
2019-04-06T21:03:37.703Z,44.50
2019-04-06T21:06:06.455Z,45.37
2019-04-06T21:08:35.363Z,42.60
2019-04-06T21:11:03.880Z,44.03
2019-04-06T21:13:32.436Z,44.77
2019-04-06T21:16:01.054Z,43.47
2019-04-06T21:18:29.438Z,39.57
2019-04-06T21:20:57.876Z,35.03
2019-04-06T21:23:26.353Z,38.43
2019-04-06T21:25:54.997Z,37.57
2019-04-06T21:28:24.494Z,38.00
2019-04-06T21:30:53.378Z,36.63
2019-04-06T21:33:22.166Z,39.50
2019-04-06T21:35:50.624Z,36.10
2019-04-06T21:38:19.252Z,33.43
2019-04-06T21:40:47.959Z,37.00
2019-04-06T21:43:17.271Z,36.97
2019-04-06T21:45:45.852Z,33.43
2019-04-06T21:48:14.846Z,35.37
2019-04-06T21:50:43.655Z,34.20
2019-04-06T21:53:12.190Z,34.57
2019-04-06T21:55:40.641Z,37.67
2019-04-06T21:58:09.644Z,41.10
2019-04-06T22:00:51.578Z,40.20
2019-04-06T22:03:20.706Z,37.60
2019-04-06T22:05:50.482Z,40.53
2019-04-06T22:08:19.559Z,36.53
2019-04-06T22:10:47.903Z,36.97
2019-04-06T22:13:16.353Z,37.23
2019-04-06T22:15:45.131Z,36.17
2019-04-06T22:18:13.712Z,34.67
2019-04-06T22:20:42.097Z,32.50
2019-04-06T22:23:10.775Z,32.70
2019-04-06T22:25:39.191Z,29.70
2019-04-06T22:28:09.685Z,31.10
2019-04-06T22:30:39.531Z,30.93
2019-04-06T22:33:08.287Z,32.80
2019-04-06T22:35:37.323Z,31.77
2019-04-06T22:38:05.850Z,42.37
2019-04-06T22:40:34.208Z,35.23
2019-04-06T22:43:03.055Z,34.90
2019-04-06T22:45:33.633Z,31.97
2019-04-06T22:48:02.374Z,35.07
2019-04-06T22:50:31.388Z,39.53
2019-04-06T22:52:59.844Z,34.83
2019-04-06T22:55:28.714Z,33.93
2019-04-06T22:57:57.358Z,32.13
2019-04-06T23:00:28.214Z,32.83
2019-04-06T23:03:06.768Z,34.37
2019-04-06T23:05:37.017Z,36.70
2019-04-06T23:08:05.608Z,29.87
2019-04-06T23:10:34.490Z,36.47
2019-04-06T23:13:03.363Z,34.70
2019-04-06T23:15:31.913Z,32.50
2019-04-06T23:18:00.383Z,32.10
2019-04-06T23:20:28.709Z,36.70
2019-04-06T23:22:57.094Z,33.53
2019-04-06T23:25:25.528Z,33.50
2019-04-06T23:27:53.855Z,39.87
2019-04-06T23:30:22.690Z,36.17
2019-04-06T23:32:51.163Z,33.83
2019-04-06T23:35:19.755Z,35.97
2019-04-06T23:37:48.278Z,34.10
2019-04-06T23:40:16.826Z,28.13
2019-04-06T23:42:45.848Z,33.93
2019-04-06T23:45:14.418Z,37.17
2019-04-06T23:47:43.312Z,38.23
2019-04-06T23:50:12.298Z,39.93
2019-04-06T23:52:41.004Z,34.97
2019-04-06T23:55:09.731Z,37.00
2019-04-06T23:57:38.413Z,31.83
